sensor_id;sensor_type;location;lat;lon;timestamp;P1;durP1;ratioP1;P2;durP2;ratioP2
68700;SDS011;55682;51.114;5.882;2023-08-08T00:01:12;3.84;;;3.84;;
68700;SDS011;55682;51.114;5.882;2023-08-08T00:03:38;4.02;;;4.02;;
68700;SDS011;55682;51.114;5.882;2023-08-08T00:06:03;3.83;;;3.83;;
68700;SDS011;55682;51.114;5.882;2023-08-08T00:08:29;4.02;;;4.02;;
68700;SDS011;55682;51.114;5.882;2023-08-08T00:10:55;3.75;;;3.75;;
68700;SDS011;55682;51.114;5.882;2023-08-08T00:13:20;3.86;;;3.86;;
68700;SDS011;55682;51.114;5.882;2023-08-08T00:15:46;3.79;;;3.79;;
68700;SDS011;55682;51.114;5.882;2023-08-08T00:18:12;3.70;;;3.70;;
68700;SDS011;55682;51.114;5.882;2023-08-08T00:20:37;3.48;;;3.48;;
68700;SDS011;55682;51.114;5.882;2023-08-08T00:23:03;3.38;;;3.38;;
68700;SDS011;55682;51.114;5.882;2023-08-08T00:25:29;3.61;;;3.61;;
68700;SDS011;55682;51.114;5.882;2023-08-08T00:27:54;3.40;;;3.40;;
68700;SDS011;55682;51.114;5.882;2023-08-08T00:30:20;3.44;;;3.44;;
68700;SDS011;55682;51.114;5.882;2023-08-08T00:32:46;3.22;;;3.22;;
68700;SDS011;55682;51.114;5.882;2023-08-08T00:35:11;3.45;;;3.45;;
68700;SDS011;55682;51.114;5.882;2023-08-08T00:37:37;3.43;;;3.43;;
68700;SDS011;55682;51.114;5.882;2023-08-08T00:40:03;3.49;;;3.49;;
68700;SDS011;55682;51.114;5.882;2023-08-08T00:42:29;3.29;;;3.29;;
68700;SDS011;55682;51.114;5.882;2023-08-08T00:44:54;3.67;;;3.67;;
68700;SDS011;55682;51.114;5.882;2023-08-08T00:47:27;3.57;;;3.57;;
68700;SDS011;55682;51.114;5.882;2023-08-08T00:49:54;3.22;;;3.22;;
68700;SDS011;55682;51.114;5.882;2023-08-08T00:52:21;3.30;;;3.30;;
68700;SDS011;55682;51.114;5.882;2023-08-08T00:54:47;3.28;;;3.28;;
68700;SDS011;55682;51.114;5.882;2023-08-08T00:57:13;3.40;;;3.40;;
68700;SDS011;55682;51.114;5.882;2023-08-08T00:59:38;3.36;;;3.36;;
68700;SDS011;55682;51.114;5.882;2023-08-08T01:02:04;3.25;;;3.25;;
68700;SDS011;55682;51.114;5.882;2023-08-08T01:04:30;3.57;;;3.57;;
68700;SDS011;55682;51.114;5.882;2023-08-08T01:09:36;3.65;;;3.65;;
68700;SDS011;55682;51.114;5.882;2023-08-08T01:12:10;3.61;;;3.61;;
68700;SDS011;55682;51.114;5.882;2023-08-08T01:14:40;3.83;;;3.83;;
68700;SDS011;55682;51.114;5.882;2023-08-08T01:17:08;3.59;;;3.59;;
68700;SDS011;55682;51.114;5.882;2023-08-08T01:19:36;3.57;;;3.57;;
68700;SDS011;55682;51.114;5.882;2023-08-08T01:22:07;3.40;;;3.40;;
68700;SDS011;55682;51.114;5.882;2023-08-08T01:24:50;3.81;;;3.81;;
68700;SDS011;55682;51.114;5.882;2023-08-08T01:27:17;3.86;;;3.86;;
68700;SDS011;55682;51.114;5.882;2023-08-08T01:29:43;3.76;;;3.76;;
68700;SDS011;55682;51.114;5.882;2023-08-08T01:32:08;3.40;;;3.40;;
68700;SDS011;55682;51.114;5.882;2023-08-08T01:34:36;3.45;;;3.45;;
68700;SDS011;55682;51.114;5.882;2023-08-08T01:39:32;3.12;;;3.12;;
68700;SDS011;55682;51.114;5.882;2023-08-08T01:42:00;3.29;;;3.29;;
68700;SDS011;55682;51.114;5.882;2023-08-08T01:44:27;3.19;;;3.19;;
68700;SDS011;55682;51.114;5.882;2023-08-08T01:46:54;3.37;;;3.37;;
68700;SDS011;55682;51.114;5.882;2023-08-08T01:49:20;3.04;;;3.04;;
68700;SDS011;55682;51.114;5.882;2023-08-08T01:51:46;3.20;;;3.20;;
68700;SDS011;55682;51.114;5.882;2023-08-08T01:54:13;3.01;;;3.01;;
68700;SDS011;55682;51.114;5.882;2023-08-08T01:56:39;3.00;;;3.00;;
68700;SDS011;55682;51.114;5.882;2023-08-08T01:59:04;2.86;;;2.86;;
68700;SDS011;55682;51.114;5.882;2023-08-08T02:01:30;2.87;;;2.87;;
68700;SDS011;55682;51.114;5.882;2023-08-08T02:03:56;2.78;;;2.78;;
68700;SDS011;55682;51.114;5.882;2023-08-08T02:06:21;2.87;;;2.87;;
68700;SDS011;55682;51.114;5.882;2023-08-08T02:08:47;2.36;;;2.36;;
68700;SDS011;55682;51.114;5.882;2023-08-08T02:11:13;2.75;;;2.75;;
68700;SDS011;55682;51.114;5.882;2023-08-08T02:13:38;2.72;;;2.72;;
68700;SDS011;55682;51.114;5.882;2023-08-08T02:16:04;2.63;;;2.63;;
68700;SDS011;55682;51.114;5.882;2023-08-08T02:18:30;2.64;;;2.64;;
68700;SDS011;55682;51.114;5.882;2023-08-08T02:20:55;2.54;;;2.54;;
68700;SDS011;55682;51.114;5.882;2023-08-08T02:23:21;2.56;;;2.56;;
68700;SDS011;55682;51.114;5.882;2023-08-08T02:25:47;2.66;;;2.66;;
68700;SDS011;55682;51.114;5.882;2023-08-08T02:28:12;2.79;;;2.79;;
68700;SDS011;55682;51.114;5.882;2023-08-08T02:30:38;2.46;;;2.46;;
68700;SDS011;55682;51.114;5.882;2023-08-08T02:33:04;2.52;;;2.52;;
68700;SDS011;55682;51.114;5.882;2023-08-08T02:35:29;2.68;;;2.68;;
68700;SDS011;55682;51.114;5.882;2023-08-08T02:37:55;2.83;;;2.83;;
68700;SDS011;55682;51.114;5.882;2023-08-08T02:40:21;2.96;;;2.96;;
68700;SDS011;55682;51.114;5.882;2023-08-08T02:42:49;2.94;;;2.94;;
68700;SDS011;55682;51.114;5.882;2023-08-08T02:45:15;2.79;;;2.79;;
68700;SDS011;55682;51.114;5.882;2023-08-08T02:47:41;2.97;;;2.97;;
68700;SDS011;55682;51.114;5.882;2023-08-08T02:50:07;2.62;;;2.62;;
68700;SDS011;55682;51.114;5.882;2023-08-08T02:52:33;2.59;;;2.59;;
68700;SDS011;55682;51.114;5.882;2023-08-08T02:54:59;2.57;;;2.57;;
68700;SDS011;55682;51.114;5.882;2023-08-08T02:57:24;2.91;;;2.91;;
68700;SDS011;55682;51.114;5.882;2023-08-08T02:59:52;2.68;;;2.68;;
68700;SDS011;55682;51.114;5.882;2023-08-08T03:02:18;2.66;;;2.66;;
68700;SDS011;55682;51.114;5.882;2023-08-08T03:04:44;2.70;;;2.69;;
68700;SDS011;55682;51.114;5.882;2023-08-08T03:07:10;2.99;;;2.99;;
68700;SDS011;55682;51.114;5.882;2023-08-08T03:09:37;2.83;;;2.83;;
68700;SDS011;55682;51.114;5.882;2023-08-08T03:12:02;3.15;;;3.15;;
68700;SDS011;55682;51.114;5.882;2023-08-08T03:14:30;3.03;;;3.03;;
68700;SDS011;55682;51.114;5.882;2023-08-08T03:16:58;2.94;;;2.94;;
68700;SDS011;55682;51.114;5.882;2023-08-08T03:19:24;2.88;;;2.88;;
68700;SDS011;55682;51.114;5.882;2023-08-08T03:21:51;3.01;;;3.01;;
68700;SDS011;55682;51.114;5.882;2023-08-08T03:24:17;3.42;;;3.42;;
68700;SDS011;55682;51.114;5.882;2023-08-08T03:26:42;3.36;;;3.36;;
68700;SDS011;55682;51.114;5.882;2023-08-08T03:29:08;2.87;;;2.87;;
68700;SDS011;55682;51.114;5.882;2023-08-08T03:31:39;3.06;;;3.06;;
68700;SDS011;55682;51.114;5.882;2023-08-08T03:34:05;3.12;;;3.12;;
68700;SDS011;55682;51.114;5.882;2023-08-08T03:36:32;3.45;;;3.44;;
68700;SDS011;55682;51.114;5.882;2023-08-08T03:38:58;3.46;;;3.46;;
68700;SDS011;55682;51.114;5.882;2023-08-08T03:41:24;3.20;;;3.19;;
68700;SDS011;55682;51.114;5.882;2023-08-08T03:43:49;3.67;;;3.66;;
68700;SDS011;55682;51.114;5.882;2023-08-08T03:46:17;3.47;;;3.46;;
68700;SDS011;55682;51.114;5.882;2023-08-08T03:48:42;3.21;;;3.20;;
68700;SDS011;55682;51.114;5.882;2023-08-08T03:51:08;3.63;;;3.63;;
68700;SDS011;55682;51.114;5.882;2023-08-08T03:53:34;3.42;;;3.42;;
68700;SDS011;55682;51.114;5.882;2023-08-08T03:55:59;3.29;;;3.29;;
68700;SDS011;55682;51.114;5.882;2023-08-08T03:58:25;3.27;;;3.26;;
68700;SDS011;55682;51.114;5.882;2023-08-08T04:00:50;3.37;;;3.36;;
68700;SDS011;55682;51.114;5.882;2023-08-08T04:03:16;3.64;;;3.64;;
68700;SDS011;55682;51.114;5.882;2023-08-08T04:05:44;3.87;;;3.85;;
68700;SDS011;55682;51.114;5.882;2023-08-08T04:08:17;3.66;;;3.64;;
68700;SDS011;55682;51.114;5.882;2023-08-08T04:10:43;3.79;;;3.74;;
68700;SDS011;55682;51.114;5.882;2023-08-08T04:13:12;3.70;;;3.64;;
68700;SDS011;55682;51.114;5.882;2023-08-08T04:15:37;3.09;;;3.02;;
68700;SDS011;55682;51.114;5.882;2023-08-08T04:18:03;3.22;;;3.17;;
68700;SDS011;55682;51.114;5.882;2023-08-08T04:20:31;3.63;;;3.60;;
68700;SDS011;55682;51.114;5.882;2023-08-08T04:22:58;3.40;;;3.37;;
68700;SDS011;55682;51.114;5.882;2023-08-08T04:25:24;3.62;;;3.59;;
68700;SDS011;55682;51.114;5.882;2023-08-08T04:27:49;3.25;;;3.24;;
68700;SDS011;55682;51.114;5.882;2023-08-08T04:30:15;3.48;;;3.48;;
68700;SDS011;55682;51.114;5.882;2023-08-08T04:32:41;3.54;;;3.52;;
68700;SDS011;55682;51.114;5.882;2023-08-08T04:35:06;3.67;;;3.65;;
68700;SDS011;55682;51.114;5.882;2023-08-08T04:37:32;3.37;;;3.34;;
68700;SDS011;55682;51.114;5.882;2023-08-08T04:39:58;3.38;;;3.35;;
68700;SDS011;55682;51.114;5.882;2023-08-08T04:42:24;3.52;;;3.50;;
68700;SDS011;55682;51.114;5.882;2023-08-08T04:44:49;3.34;;;3.33;;
68700;SDS011;55682;51.114;5.882;2023-08-08T04:47:15;3.37;;;3.37;;
68700;SDS011;55682;51.114;5.882;2023-08-08T04:49:40;3.47;;;3.43;;
68700;SDS011;55682;51.114;5.882;2023-08-08T04:52:06;3.70;;;3.67;;
68700;SDS011;55682;51.114;5.882;2023-08-08T04:54:32;3.57;;;3.56;;
68700;SDS011;55682;51.114;5.882;2023-08-08T04:56:57;3.45;;;3.43;;
68700;SDS011;55682;51.114;5.882;2023-08-08T04:59:23;3.55;;;3.55;;
68700;SDS011;55682;51.114;5.882;2023-08-08T05:01:48;3.48;;;3.47;;
68700;SDS011;55682;51.114;5.882;2023-08-08T05:04:14;3.46;;;3.46;;
68700;SDS011;55682;51.114;5.882;2023-08-08T05:06:40;3.47;;;3.47;;
68700;SDS011;55682;51.114;5.882;2023-08-08T05:09:05;3.74;;;3.74;;
68700;SDS011;55682;51.114;5.882;2023-08-08T05:11:34;3.46;;;3.45;;
68700;SDS011;55682;51.114;5.882;2023-08-08T05:14:00;3.65;;;3.65;;
68700;SDS011;55682;51.114;5.882;2023-08-08T05:16:26;3.46;;;3.46;;
68700;SDS011;55682;51.114;5.882;2023-08-08T05:18:52;3.77;;;3.77;;
68700;SDS011;55682;51.114;5.882;2023-08-08T05:21:18;3.10;;;3.10;;
68700;SDS011;55682;51.114;5.882;2023-08-08T05:23:44;3.33;;;3.33;;
68700;SDS011;55682;51.114;5.882;2023-08-08T05:26:10;3.63;;;3.63;;
68700;SDS011;55682;51.114;5.882;2023-08-08T05:28:36;3.37;;;3.37;;
68700;SDS011;55682;51.114;5.882;2023-08-08T05:31:01;3.14;;;3.13;;
68700;SDS011;55682;51.114;5.882;2023-08-08T05:33:27;3.10;;;3.08;;
68700;SDS011;55682;51.114;5.882;2023-08-08T05:35:53;2.95;;;2.94;;
68700;SDS011;55682;51.114;5.882;2023-08-08T05:38:18;2.97;;;2.94;;
68700;SDS011;55682;51.114;5.882;2023-08-08T05:40:44;2.79;;;2.77;;
68700;SDS011;55682;51.114;5.882;2023-08-08T05:43:09;2.70;;;2.70;;
68700;SDS011;55682;51.114;5.882;2023-08-08T05:45:35;2.47;;;2.46;;
68700;SDS011;55682;51.114;5.882;2023-08-08T05:48:01;2.77;;;2.75;;
68700;SDS011;55682;51.114;5.882;2023-08-08T05:50:27;2.73;;;2.70;;
68700;SDS011;55682;51.114;5.882;2023-08-08T05:52:53;2.69;;;2.67;;
68700;SDS011;55682;51.114;5.882;2023-08-08T05:55:19;2.66;;;2.62;;
68700;SDS011;55682;51.114;5.882;2023-08-08T05:57:44;2.84;;;2.79;;
68700;SDS011;55682;51.114;5.882;2023-08-08T06:00:10;2.94;;;2.88;;
68700;SDS011;55682;51.114;5.882;2023-08-08T06:02:41;2.92;;;2.87;;
68700;SDS011;55682;51.114;5.882;2023-08-08T06:05:06;2.71;;;2.66;;
68700;SDS011;55682;51.114;5.882;2023-08-08T06:07:32;2.87;;;2.81;;
68700;SDS011;55682;51.114;5.882;2023-08-08T06:09:58;2.87;;;2.81;;
68700;SDS011;55682;51.114;5.882;2023-08-08T06:12:24;2.76;;;2.71;;
68700;SDS011;55682;51.114;5.882;2023-08-08T06:14:50;2.74;;;2.68;;
68700;SDS011;55682;51.114;5.882;2023-08-08T06:17:15;2.89;;;2.84;;
68700;SDS011;55682;51.114;5.882;2023-08-08T06:19:41;2.68;;;2.66;;
68700;SDS011;55682;51.114;5.882;2023-08-08T06:22:06;2.98;;;2.95;;
68700;SDS011;55682;51.114;5.882;2023-08-08T06:24:32;3.15;;;3.08;;
68700;SDS011;55682;51.114;5.882;2023-08-08T06:26:58;2.95;;;2.92;;
68700;SDS011;55682;51.114;5.882;2023-08-08T06:29:24;2.74;;;2.71;;
68700;SDS011;55682;51.114;5.882;2023-08-08T06:31:50;2.84;;;2.81;;
68700;SDS011;55682;51.114;5.882;2023-08-08T06:34:15;2.71;;;2.69;;
68700;SDS011;55682;51.114;5.882;2023-08-08T06:36:41;2.72;;;2.71;;
68700;SDS011;55682;51.114;5.882;2023-08-08T06:39:07;2.76;;;2.73;;
68700;SDS011;55682;51.114;5.882;2023-08-08T06:41:32;2.70;;;2.68;;
68700;SDS011;55682;51.114;5.882;2023-08-08T06:43:58;2.63;;;2.61;;
68700;SDS011;55682;51.114;5.882;2023-08-08T06:46:24;2.86;;;2.82;;
68700;SDS011;55682;51.114;5.882;2023-08-08T06:48:50;2.74;;;2.71;;
68700;SDS011;55682;51.114;5.882;2023-08-08T06:51:18;2.79;;;2.78;;
68700;SDS011;55682;51.114;5.882;2023-08-08T06:53:43;2.89;;;2.89;;
68700;SDS011;55682;51.114;5.882;2023-08-08T06:56:09;2.64;;;2.64;;
68700;SDS011;55682;51.114;5.882;2023-08-08T06:58:35;2.74;;;2.74;;
68700;SDS011;55682;51.114;5.882;2023-08-08T07:01:00;2.49;;;2.49;;
68700;SDS011;55682;51.114;5.882;2023-08-08T07:03:26;2.82;;;2.82;;
68700;SDS011;55682;51.114;5.882;2023-08-08T07:05:51;2.89;;;2.89;;
68700;SDS011;55682;51.114;5.882;2023-08-08T07:08:18;2.82;;;2.82;;
68700;SDS011;55682;51.114;5.882;2023-08-08T07:10:44;2.89;;;2.89;;
68700;SDS011;55682;51.114;5.882;2023-08-08T07:13:09;2.86;;;2.85;;
68700;SDS011;55682;51.114;5.882;2023-08-08T07:15:35;3.05;;;2.97;;
68700;SDS011;55682;51.114;5.882;2023-08-08T07:18:02;3.28;;;3.24;;
68700;SDS011;55682;51.114;5.882;2023-08-08T07:20:28;3.09;;;3.09;;
68700;SDS011;55682;51.114;5.882;2023-08-08T07:22:54;2.89;;;2.89;;
68700;SDS011;55682;51.114;5.882;2023-08-08T07:25:20;3.05;;;3.05;;
68700;SDS011;55682;51.114;5.882;2023-08-08T07:27:45;3.58;;;3.58;;
68700;SDS011;55682;51.114;5.882;2023-08-08T07:30:11;3.55;;;3.54;;
68700;SDS011;55682;51.114;5.882;2023-08-08T07:32:37;3.28;;;3.28;;
68700;SDS011;55682;51.114;5.882;2023-08-08T07:35:03;3.47;;;3.47;;
68700;SDS011;55682;51.114;5.882;2023-08-08T07:37:31;3.43;;;3.43;;
68700;SDS011;55682;51.114;5.882;2023-08-08T07:39:58;3.91;;;3.91;;
68700;SDS011;55682;51.114;5.882;2023-08-08T07:42:23;3.61;;;3.61;;
68700;SDS011;55682;51.114;5.882;2023-08-08T07:44:49;3.56;;;3.56;;
68700;SDS011;55682;51.114;5.882;2023-08-08T07:47:15;3.55;;;3.55;;
68700;SDS011;55682;51.114;5.882;2023-08-08T07:49:41;3.49;;;3.49;;
68700;SDS011;55682;51.114;5.882;2023-08-08T07:52:07;3.58;;;3.58;;
68700;SDS011;55682;51.114;5.882;2023-08-08T07:54:33;3.32;;;3.32;;
68700;SDS011;55682;51.114;5.882;2023-08-08T07:56:59;3.63;;;3.63;;
68700;SDS011;55682;51.114;5.882;2023-08-08T07:59:25;3.52;;;3.52;;
68700;SDS011;55682;51.114;5.882;2023-08-08T08:01:50;3.93;;;3.93;;
68700;SDS011;55682;51.114;5.882;2023-08-08T08:04:16;3.75;;;3.75;;
68700;SDS011;55682;51.114;5.882;2023-08-08T08:06:42;3.57;;;3.57;;
68700;SDS011;55682;51.114;5.882;2023-08-08T08:09:07;3.61;;;3.61;;
68700;SDS011;55682;51.114;5.882;2023-08-08T08:11:33;3.66;;;3.66;;
68700;SDS011;55682;51.114;5.882;2023-08-08T08:13:59;3.59;;;3.59;;
68700;SDS011;55682;51.114;5.882;2023-08-08T08:16:24;3.55;;;3.55;;
68700;SDS011;55682;51.114;5.882;2023-08-08T08:18:50;3.60;;;3.60;;
68700;SDS011;55682;51.114;5.882;2023-08-08T08:21:16;3.64;;;3.64;;
68700;SDS011;55682;51.114;5.882;2023-08-08T08:23:43;3.36;;;3.36;;
68700;SDS011;55682;51.114;5.882;2023-08-08T08:26:09;3.33;;;3.33;;
68700;SDS011;55682;51.114;5.882;2023-08-08T08:28:35;3.29;;;3.29;;
68700;SDS011;55682;51.114;5.882;2023-08-08T08:31:07;3.45;;;3.45;;
68700;SDS011;55682;51.114;5.882;2023-08-08T08:33:34;3.50;;;3.50;;
68700;SDS011;55682;51.114;5.882;2023-08-08T08:36:00;3.42;;;3.42;;
68700;SDS011;55682;51.114;5.882;2023-08-08T08:38:25;3.17;;;3.17;;
68700;SDS011;55682;51.114;5.882;2023-08-08T08:40:51;3.42;;;3.42;;
68700;SDS011;55682;51.114;5.882;2023-08-08T08:43:21;3.25;;;3.25;;
68700;SDS011;55682;51.114;5.882;2023-08-08T08:45:51;2.99;;;2.99;;
68700;SDS011;55682;51.114;5.882;2023-08-08T08:48:21;3.42;;;3.42;;
68700;SDS011;55682;51.114;5.882;2023-08-08T08:50:48;3.36;;;3.36;;
68700;SDS011;55682;51.114;5.882;2023-08-08T08:53:14;3.29;;;3.29;;
68700;SDS011;55682;51.114;5.882;2023-08-08T08:55:42;3.21;;;3.21;;
68700;SDS011;55682;51.114;5.882;2023-08-08T08:58:08;3.32;;;3.32;;
68700;SDS011;55682;51.114;5.882;2023-08-08T09:00:35;3.32;;;3.32;;
68700;SDS011;55682;51.114;5.882;2023-08-08T09:03:02;3.23;;;3.23;;
68700;SDS011;55682;51.114;5.882;2023-08-08T09:05:29;3.23;;;3.23;;
68700;SDS011;55682;51.114;5.882;2023-08-08T09:07:56;3.46;;;3.46;;
68700;SDS011;55682;51.114;5.882;2023-08-08T09:10:22;2.91;;;2.91;;
68700;SDS011;55682;51.114;5.882;2023-08-08T09:12:49;3.42;;;3.42;;
68700;SDS011;55682;51.114;5.882;2023-08-08T09:15:15;3.21;;;3.21;;
68700;SDS011;55682;51.114;5.882;2023-08-08T09:17:41;3.47;;;3.47;;
68700;SDS011;55682;51.114;5.882;2023-08-08T09:20:08;3.27;;;3.27;;
68700;SDS011;55682;51.114;5.882;2023-08-08T09:22:36;3.29;;;3.29;;
68700;SDS011;55682;51.114;5.882;2023-08-08T09:25:03;3.46;;;3.46;;
68700;SDS011;55682;51.114;5.882;2023-08-08T09:27:29;3.41;;;3.41;;
68700;SDS011;55682;51.114;5.882;2023-08-08T09:29:55;3.16;;;3.16;;
68700;SDS011;55682;51.114;5.882;2023-08-08T09:32:20;3.34;;;3.34;;
68700;SDS011;55682;51.114;5.882;2023-08-08T09:34:46;3.12;;;3.12;;
68700;SDS011;55682;51.114;5.882;2023-08-08T09:37:12;3.15;;;3.15;;
68700;SDS011;55682;51.114;5.882;2023-08-08T09:39:39;3.39;;;3.39;;
68700;SDS011;55682;51.114;5.882;2023-08-08T09:42:06;3.38;;;3.38;;
68700;SDS011;55682;51.114;5.882;2023-08-08T09:44:33;3.22;;;3.22;;
68700;SDS011;55682;51.114;5.882;2023-08-08T09:47:00;3.33;;;3.33;;
68700;SDS011;55682;51.114;5.882;2023-08-08T09:49:26;3.25;;;3.25;;
68700;SDS011;55682;51.114;5.882;2023-08-08T09:51:53;2.89;;;2.89;;
68700;SDS011;55682;51.114;5.882;2023-08-08T09:54:21;2.81;;;2.81;;
68700;SDS011;55682;51.114;5.882;2023-08-08T09:56:49;2.77;;;2.77;;
68700;SDS011;55682;51.114;5.882;2023-08-08T09:59:16;2.77;;;2.77;;
68700;SDS011;55682;51.114;5.882;2023-08-08T10:01:43;2.92;;;2.92;;
68700;SDS011;55682;51.114;5.882;2023-08-08T10:04:11;2.97;;;2.97;;
68700;SDS011;55682;51.114;5.882;2023-08-08T10:06:38;2.97;;;2.97;;
68700;SDS011;55682;51.114;5.882;2023-08-08T10:09:04;2.94;;;2.94;;
68700;SDS011;55682;51.114;5.882;2023-08-08T10:11:30;3.32;;;3.32;;
68700;SDS011;55682;51.114;5.882;2023-08-08T10:13:58;3.09;;;3.09;;
68700;SDS011;55682;51.114;5.882;2023-08-08T10:16:31;2.89;;;2.89;;
68700;SDS011;55682;51.114;5.882;2023-08-08T10:18:59;3.12;;;3.12;;
68700;SDS011;55682;51.114;5.882;2023-08-08T10:21:27;3.23;;;3.23;;
68700;SDS011;55682;51.114;5.882;2023-08-08T10:24:03;3.32;;;3.32;;
68700;SDS011;55682;51.114;5.882;2023-08-08T10:26:32;3.05;;;3.05;;
68700;SDS011;55682;51.114;5.882;2023-08-08T10:28:58;3.22;;;3.22;;
68700;SDS011;55682;51.114;5.882;2023-08-08T10:31:26;3.35;;;3.35;;
68700;SDS011;55682;51.114;5.882;2023-08-08T10:34:02;3.46;;;3.46;;
68700;SDS011;55682;51.114;5.882;2023-08-08T10:36:49;3.38;;;3.38;;
68700;SDS011;55682;51.114;5.882;2023-08-08T10:39:17;3.29;;;3.29;;
68700;SDS011;55682;51.114;5.882;2023-08-08T10:41:45;3.03;;;3.03;;
68700;SDS011;55682;51.114;5.882;2023-08-08T10:44:22;2.80;;;2.80;;
68700;SDS011;55682;51.114;5.882;2023-08-08T10:46:49;2.92;;;2.92;;
68700;SDS011;55682;51.114;5.882;2023-08-08T10:49:17;2.87;;;2.87;;
68700;SDS011;55682;51.114;5.882;2023-08-08T10:51:44;3.02;;;3.02;;
68700;SDS011;55682;51.114;5.882;2023-08-08T10:54:13;2.82;;;2.82;;
68700;SDS011;55682;51.114;5.882;2023-08-08T10:56:49;3.05;;;3.05;;
68700;SDS011;55682;51.114;5.882;2023-08-08T10:59:15;3.23;;;3.23;;
68700;SDS011;55682;51.114;5.882;2023-08-08T11:01:53;3.22;;;3.22;;
68700;SDS011;55682;51.114;5.882;2023-08-08T11:04:20;3.03;;;3.03;;
68700;SDS011;55682;51.114;5.882;2023-08-08T11:06:48;3.48;;;3.48;;
68700;SDS011;55682;51.114;5.882;2023-08-08T11:09:15;3.14;;;3.14;;
68700;SDS011;55682;51.114;5.882;2023-08-08T11:11:43;2.78;;;2.78;;
68700;SDS011;55682;51.114;5.882;2023-08-08T11:14:11;2.84;;;2.84;;
68700;SDS011;55682;51.114;5.882;2023-08-08T11:16:46;2.74;;;2.74;;
68700;SDS011;55682;51.114;5.882;2023-08-08T11:19:13;3.05;;;3.05;;
68700;SDS011;55682;51.114;5.882;2023-08-08T11:21:40;3.11;;;3.11;;
68700;SDS011;55682;51.114;5.882;2023-08-08T11:24:08;3.36;;;3.36;;
68700;SDS011;55682;51.114;5.882;2023-08-08T11:26:35;3.29;;;3.29;;
68700;SDS011;55682;51.114;5.882;2023-08-08T11:29:02;3.55;;;3.55;;
68700;SDS011;55682;51.114;5.882;2023-08-08T11:31:31;3.34;;;3.34;;
68700;SDS011;55682;51.114;5.882;2023-08-08T11:33:58;3.20;;;3.20;;
68700;SDS011;55682;51.114;5.882;2023-08-08T11:36:25;3.29;;;3.29;;
68700;SDS011;55682;51.114;5.882;2023-08-08T11:38:54;3.42;;;3.42;;
68700;SDS011;55682;51.114;5.882;2023-08-08T11:41:23;3.54;;;3.54;;
68700;SDS011;55682;51.114;5.882;2023-08-08T11:43:52;3.55;;;3.55;;
68700;SDS011;55682;51.114;5.882;2023-08-08T11:46:22;3.82;;;3.82;;
68700;SDS011;55682;51.114;5.882;2023-08-08T11:48:48;3.80;;;3.80;;
68700;SDS011;55682;51.114;5.882;2023-08-08T11:51:15;3.76;;;3.76;;
68700;SDS011;55682;51.114;5.882;2023-08-08T11:53:49;3.63;;;3.63;;
68700;SDS011;55682;51.114;5.882;2023-08-08T11:56:16;3.96;;;3.96;;
68700;SDS011;55682;51.114;5.882;2023-08-08T11:58:45;3.68;;;3.68;;
68700;SDS011;55682;51.114;5.882;2023-08-08T12:01:11;3.41;;;3.41;;
68700;SDS011;55682;51.114;5.882;2023-08-08T12:03:39;3.32;;;3.32;;
68700;SDS011;55682;51.114;5.882;2023-08-08T12:06:12;2.89;;;2.89;;
68700;SDS011;55682;51.114;5.882;2023-08-08T12:08:40;2.87;;;2.87;;
68700;SDS011;55682;51.114;5.882;2023-08-08T12:11:09;2.60;;;2.60;;
68700;SDS011;55682;51.114;5.882;2023-08-08T12:13:40;2.73;;;2.73;;
68700;SDS011;55682;51.114;5.882;2023-08-08T12:16:10;2.89;;;2.89;;
68700;SDS011;55682;51.114;5.882;2023-08-08T12:18:38;2.73;;;2.73;;
68700;SDS011;55682;51.114;5.882;2023-08-08T12:21:05;2.44;;;2.44;;
68700;SDS011;55682;51.114;5.882;2023-08-08T12:23:32;2.70;;;2.70;;
68700;SDS011;55682;51.114;5.882;2023-08-08T12:25:59;2.54;;;2.54;;
68700;SDS011;55682;51.114;5.882;2023-08-08T12:28:28;2.74;;;2.74;;
68700;SDS011;55682;51.114;5.882;2023-08-08T12:30:54;2.60;;;2.60;;
68700;SDS011;55682;51.114;5.882;2023-08-08T12:33:20;2.39;;;2.39;;
68700;SDS011;55682;51.114;5.882;2023-08-08T12:35:46;2.69;;;2.69;;
68700;SDS011;55682;51.114;5.882;2023-08-08T12:38:13;2.51;;;2.51;;
68700;SDS011;55682;51.114;5.882;2023-08-08T12:40:39;2.45;;;2.45;;
68700;SDS011;55682;51.114;5.882;2023-08-08T12:43:05;2.37;;;2.37;;
68700;SDS011;55682;51.114;5.882;2023-08-08T12:45:30;2.00;;;2.00;;
68700;SDS011;55682;51.114;5.882;2023-08-08T12:47:56;1.98;;;1.98;;
68700;SDS011;55682;51.114;5.882;2023-08-08T12:50:22;1.94;;;1.94;;
68700;SDS011;55682;51.114;5.882;2023-08-08T12:52:48;1.87;;;1.87;;
68700;SDS011;55682;51.114;5.882;2023-08-08T12:55:14;2.05;;;2.05;;
68700;SDS011;55682;51.114;5.882;2023-08-08T12:57:42;1.97;;;1.97;;
68700;SDS011;55682;51.114;5.882;2023-08-08T13:00:08;2.02;;;2.02;;
68700;SDS011;55682;51.114;5.882;2023-08-08T13:02:37;2.15;;;2.15;;
68700;SDS011;55682;51.114;5.882;2023-08-08T13:05:03;2.29;;;2.29;;
68700;SDS011;55682;51.114;5.882;2023-08-08T13:07:29;2.29;;;2.29;;
68700;SDS011;55682;51.114;5.882;2023-08-08T13:09:55;2.55;;;2.55;;
68700;SDS011;55682;51.114;5.882;2023-08-08T13:12:20;2.42;;;2.42;;
68700;SDS011;55682;51.114;5.882;2023-08-08T13:14:46;2.25;;;2.25;;
68700;SDS011;55682;51.114;5.882;2023-08-08T13:17:12;2.39;;;2.39;;
68700;SDS011;55682;51.114;5.882;2023-08-08T13:19:38;2.22;;;2.22;;
68700;SDS011;55682;51.114;5.882;2023-08-08T13:22:04;2.36;;;2.36;;
68700;SDS011;55682;51.114;5.882;2023-08-08T13:24:30;2.19;;;2.19;;
68700;SDS011;55682;51.114;5.882;2023-08-08T13:26:56;2.11;;;2.11;;
68700;SDS011;55682;51.114;5.882;2023-08-08T13:29:21;2.46;;;2.46;;
68700;SDS011;55682;51.114;5.882;2023-08-08T13:31:47;2.24;;;2.24;;
68700;SDS011;55682;51.114;5.882;2023-08-08T13:34:13;2.42;;;2.42;;
68700;SDS011;55682;51.114;5.882;2023-08-08T13:36:39;2.51;;;2.51;;
68700;SDS011;55682;51.114;5.882;2023-08-08T13:39:05;2.43;;;2.43;;
68700;SDS011;55682;51.114;5.882;2023-08-08T13:41:30;2.53;;;2.53;;
68700;SDS011;55682;51.114;5.882;2023-08-08T13:43:56;2.44;;;2.44;;
68700;SDS011;55682;51.114;5.882;2023-08-08T13:46:22;2.37;;;2.37;;
68700;SDS011;55682;51.114;5.882;2023-08-08T13:48:48;2.30;;;2.30;;
68700;SDS011;55682;51.114;5.882;2023-08-08T13:51:13;2.28;;;2.28;;
68700;SDS011;55682;51.114;5.882;2023-08-08T13:53:39;2.12;;;2.12;;
68700;SDS011;55682;51.114;5.882;2023-08-08T13:56:05;2.04;;;2.04;;
68700;SDS011;55682;51.114;5.882;2023-08-08T13:58:31;2.16;;;2.16;;
68700;SDS011;55682;51.114;5.882;2023-08-08T14:00:57;2.12;;;2.12;;
68700;SDS011;55682;51.114;5.882;2023-08-08T14:03:23;2.28;;;2.28;;
68700;SDS011;55682;51.114;5.882;2023-08-08T14:05:49;2.03;;;2.03;;
68700;SDS011;55682;51.114;5.882;2023-08-08T14:08:17;2.18;;;2.18;;
68700;SDS011;55682;51.114;5.882;2023-08-08T14:10:43;1.95;;;1.95;;
68700;SDS011;55682;51.114;5.882;2023-08-08T14:13:09;2.01;;;2.01;;
68700;SDS011;55682;51.114;5.882;2023-08-08T14:15:36;2.21;;;2.21;;
68700;SDS011;55682;51.114;5.882;2023-08-08T14:18:05;1.99;;;1.99;;
68700;SDS011;55682;51.114;5.882;2023-08-08T14:20:33;2.16;;;2.16;;
68700;SDS011;55682;51.114;5.882;2023-08-08T14:22:59;2.17;;;2.17;;
68700;SDS011;55682;51.114;5.882;2023-08-08T14:25:24;2.01;;;2.01;;
68700;SDS011;55682;51.114;5.882;2023-08-08T14:27:50;1.86;;;1.86;;
68700;SDS011;55682;51.114;5.882;2023-08-08T14:30:16;1.81;;;1.81;;
68700;SDS011;55682;51.114;5.882;2023-08-08T14:32:41;1.84;;;1.84;;
68700;SDS011;55682;51.114;5.882;2023-08-08T14:35:07;1.76;;;1.76;;
68700;SDS011;55682;51.114;5.882;2023-08-08T14:37:34;1.89;;;1.89;;
68700;SDS011;55682;51.114;5.882;2023-08-08T14:40:00;2.05;;;2.05;;
68700;SDS011;55682;51.114;5.882;2023-08-08T14:42:26;2.08;;;2.08;;
68700;SDS011;55682;51.114;5.882;2023-08-08T14:44:52;1.90;;;1.90;;
68700;SDS011;55682;51.114;5.882;2023-08-08T14:47:17;2.13;;;2.13;;
68700;SDS011;55682;51.114;5.882;2023-08-08T14:49:43;2.01;;;2.01;;